createdAt,value
2018-12-02T00:01:13.676Z,5.50
2018-12-02T00:03:41.512Z,6.07
2018-12-02T00:06:08.663Z,6.10
2018-12-02T00:08:35.930Z,5.80
2018-12-02T00:11:04.279Z,5.30
2018-12-02T00:13:31.564Z,5.73
2018-12-02T00:16:00.602Z,5.70
2018-12-02T00:18:28.086Z,5.33
2018-12-02T00:20:57.060Z,6.00
2018-12-02T00:23:24.839Z,4.73
2018-12-02T00:25:54.490Z,5.63
2018-12-02T00:28:23.599Z,4.90
2018-12-02T00:30:52.998Z,6.00
2018-12-02T00:33:21.375Z,5.53
2018-12-02T00:35:48.918Z,5.10
2018-12-02T00:38:17.540Z,5.10
2018-12-02T00:40:45.094Z,4.87
2018-12-02T00:43:12.615Z,5.30
2018-12-02T00:45:40.156Z,4.93
2018-12-02T00:48:08.317Z,6.43
2018-12-02T00:50:36.296Z,5.40
2018-12-02T00:53:05.502Z,5.27
2018-12-02T00:55:35.734Z,6.70
2018-12-02T00:58:04.291Z,6.00
2018-12-02T01:00:31.511Z,6.87
2018-12-02T01:02:59.175Z,6.23
2018-12-02T01:05:26.598Z,6.00
2018-12-02T01:07:54.183Z,7.00
2018-12-02T01:10:22.401Z,6.30
2018-12-02T01:12:52.137Z,5.90
2018-12-02T01:15:21.235Z,5.70
2018-12-02T01:17:50.822Z,6.03
2018-12-02T01:20:19.925Z,5.47
2018-12-02T01:22:48.191Z,6.47
2018-12-02T01:25:16.166Z,5.77
2018-12-02T01:27:45.708Z,5.80
2018-12-02T01:30:19.887Z,5.70
2018-12-02T01:32:49.092Z,5.47
2018-12-02T01:35:19.642Z,5.00
2018-12-02T01:37:47.182Z,5.30
2018-12-02T01:40:18.385Z,5.80
2018-12-02T01:42:46.647Z,5.17
2018-12-02T01:45:16.616Z,5.10
2018-12-02T01:47:43.754Z,5.43
2018-12-02T01:50:12.133Z,4.87
2018-12-02T01:52:39.358Z,5.17
2018-12-02T01:55:07.237Z,5.07
2018-12-02T01:57:35.540Z,5.47
2018-12-02T02:00:07.652Z,5.53
2018-12-02T02:02:34.914Z,5.27
2018-12-02T02:05:02.055Z,5.57
2018-12-02T02:07:39.240Z,7.20
2018-12-02T02:10:11.609Z,6.00
2018-12-02T02:12:38.768Z,5.60
2018-12-02T02:15:07.095Z,7.30
2018-12-02T02:17:34.339Z,6.10
2018-12-02T02:20:01.623Z,6.53
2018-12-02T02:22:28.805Z,5.93
2018-12-02T02:24:56.008Z,5.53
2018-12-02T02:27:23.342Z,6.53
2018-12-02T02:29:50.558Z,6.40
2018-12-02T02:32:17.799Z,6.37
2018-12-02T02:34:44.959Z,5.50
2018-12-02T02:37:12.216Z,6.10
2018-12-02T02:39:39.473Z,6.47
2018-12-02T02:42:06.661Z,6.87
2018-12-02T02:44:33.875Z,6.93
2018-12-02T02:47:01.020Z,6.27
2018-12-02T02:49:28.439Z,6.93
2018-12-02T02:51:55.631Z,7.30
2018-12-02T02:54:22.994Z,6.27
2018-12-02T02:56:50.159Z,5.90
2018-12-02T02:59:17.503Z,6.10
2018-12-02T03:01:44.670Z,6.10
2018-12-02T03:04:16.668Z,5.13
2018-12-02T03:06:43.860Z,5.43
2018-12-02T03:09:11.024Z,5.33
2018-12-02T03:11:38.270Z,4.47
2018-12-02T03:14:05.522Z,4.67
2018-12-02T03:16:32.711Z,5.20
2018-12-02T03:18:59.897Z,5.07
2018-12-02T03:21:27.139Z,4.60
2018-12-02T03:23:54.323Z,4.60
2018-12-02T03:26:21.470Z,4.23
2018-12-02T03:28:48.680Z,4.60
2018-12-02T03:31:15.862Z,4.20
2018-12-02T03:33:43.146Z,4.03
2018-12-02T03:36:11.300Z,4.17
2018-12-02T03:38:38.555Z,4.00
2018-12-02T03:41:05.820Z,4.40
2018-12-02T03:43:33.071Z,3.80
2018-12-02T03:46:00.319Z,3.93
2018-12-02T03:48:27.596Z,4.40
2018-12-02T03:50:54.929Z,3.93
2018-12-02T03:53:22.242Z,3.73
2018-12-02T03:55:49.361Z,4.00
2018-12-02T03:58:20.161Z,3.50
2018-12-02T04:00:47.317Z,4.20
2018-12-02T04:03:14.583Z,3.83
2018-12-02T04:05:41.991Z,3.80
2018-12-02T04:08:09.291Z,4.00
2018-12-02T04:10:36.552Z,3.77
2018-12-02T04:13:03.798Z,4.20
2018-12-02T04:15:30.948Z,3.97
2018-12-02T04:17:58.097Z,3.63
2018-12-02T04:20:25.362Z,4.00
2018-12-02T04:22:52.836Z,3.97
2018-12-02T04:25:21.933Z,5.67
2018-12-02T04:27:49.117Z,3.57
2018-12-02T04:30:17.255Z,3.60
2018-12-02T04:32:45.062Z,3.73
2018-12-02T04:35:21.263Z,3.80
2018-12-02T04:37:48.411Z,4.30
2018-12-02T04:40:15.664Z,4.13
2018-12-02T04:42:43.018Z,4.17
2018-12-02T04:45:11.118Z,3.70
2018-12-02T04:47:38.405Z,4.07
2018-12-02T04:50:10.677Z,3.90
2018-12-02T04:52:37.946Z,3.77
2018-12-02T04:55:05.980Z,4.13
2018-12-02T04:57:39.889Z,3.60
2018-12-02T05:00:09.900Z,4.40
2018-12-02T05:02:37.082Z,4.13
2018-12-02T05:05:06.766Z,3.77
2018-12-02T05:07:33.996Z,3.70
2018-12-02T05:10:01.235Z,3.70
2018-12-02T05:12:28.429Z,4.40
2018-12-02T05:14:55.671Z,3.80
2018-12-02T05:17:22.798Z,5.40
2018-12-02T05:19:49.947Z,3.90
2018-12-02T05:22:17.173Z,4.00
2018-12-02T05:24:44.381Z,4.20
2018-12-02T05:27:11.581Z,3.83
2018-12-02T05:29:38.773Z,3.70
2018-12-02T05:32:06.053Z,4.27
2018-12-02T05:34:33.197Z,4.37
2018-12-02T05:37:00.374Z,3.80
2018-12-02T05:39:27.526Z,3.60
2018-12-02T05:42:00.407Z,4.30
2018-12-02T05:44:27.591Z,4.77
2018-12-02T05:46:54.952Z,3.90
2018-12-02T05:49:22.053Z,3.93
2018-12-02T05:51:49.997Z,4.43
2018-12-02T05:54:17.239Z,4.20
2018-12-02T05:56:44.591Z,5.77
2018-12-02T05:59:11.775Z,4.40
2018-12-02T06:01:38.954Z,3.70
2018-12-02T06:04:06.163Z,4.50
2018-12-02T06:06:33.382Z,4.07
2018-12-02T06:09:00.538Z,4.80
2018-12-02T06:11:27.682Z,4.67
2018-12-02T06:13:54.935Z,4.40
2018-12-02T06:16:22.190Z,4.40
2018-12-02T06:18:49.510Z,4.20
2018-12-02T06:21:16.643Z,4.53
2018-12-02T06:23:43.928Z,3.87
2018-12-02T06:26:11.099Z,4.63
2018-12-02T06:28:38.253Z,5.90
2018-12-02T06:31:05.447Z,4.10
2018-12-02T06:33:32.619Z,4.77
2018-12-02T06:35:59.812Z,3.83
2018-12-02T06:38:26.948Z,5.23
2018-12-02T06:40:54.164Z,4.20
2018-12-02T06:43:21.371Z,4.47
2018-12-02T06:45:48.637Z,4.20
2018-12-02T06:48:15.851Z,4.67
2018-12-02T06:50:43.032Z,4.73
2018-12-02T06:53:10.194Z,4.50
2018-12-02T06:55:49.664Z,5.00
2018-12-02T06:58:27.966Z,4.63
2018-12-02T07:01:39.268Z,4.40
2018-12-02T07:04:30.431Z,4.43
2018-12-02T07:06:58.269Z,5.70
2018-12-02T07:09:25.440Z,4.80
2018-12-02T07:11:52.607Z,5.10
2018-12-02T07:14:25.004Z,5.27
2018-12-02T07:16:52.517Z,4.73
2018-12-02T07:19:27.902Z,5.57
2018-12-02T07:21:57.300Z,5.00
2018-12-02T07:24:24.546Z,4.60
2018-12-02T07:26:51.703Z,5.03
2018-12-02T07:29:18.848Z,5.37
2018-12-02T07:31:46.111Z,5.37
2018-12-02T07:34:13.378Z,5.70
2018-12-02T07:36:40.599Z,5.60
2018-12-02T07:40:21.708Z,5.30
2018-12-02T07:42:48.999Z,4.60
2018-12-02T07:45:21.553Z,4.83
2018-12-02T07:47:49.902Z,5.57
2018-12-02T07:50:18.699Z,6.10
2018-12-02T07:52:45.845Z,5.50
2018-12-02T07:55:13.030Z,5.23
2018-12-02T07:57:40.215Z,4.93
2018-12-02T08:00:14.876Z,4.70
2018-12-02T08:02:42.127Z,4.73
2018-12-02T08:06:14.895Z,4.33
2018-12-02T08:08:42.245Z,4.37
2018-12-02T08:11:09.531Z,3.93
2018-12-02T08:13:36.771Z,4.50
2018-12-02T08:16:03.999Z,4.10
2018-12-02T08:18:31.326Z,4.53
2018-12-02T08:20:58.601Z,5.03
2018-12-02T08:23:25.862Z,4.10
2018-12-02T08:25:53.134Z,4.40
2018-12-02T08:28:20.735Z,4.20
2018-12-02T08:30:47.949Z,4.00
2018-12-02T08:33:16.645Z,4.50
2018-12-02T08:35:51.005Z,4.40
2018-12-02T08:38:18.149Z,4.63
2018-12-02T08:40:45.394Z,4.70
2018-12-02T08:43:18.579Z,5.00
2018-12-02T08:45:45.785Z,3.80
2018-12-02T08:48:13.991Z,4.53
2018-12-02T08:50:41.159Z,4.30
2018-12-02T08:53:08.367Z,4.57
2018-12-02T08:55:35.639Z,5.07
2018-12-02T08:58:02.929Z,4.37
2018-12-02T09:00:30.159Z,4.50
2018-12-02T09:02:58.664Z,5.00
2018-12-02T09:05:25.962Z,4.60
2018-12-02T09:07:54.489Z,5.30
2018-12-02T09:10:22.974Z,4.30
2018-12-02T09:12:51.579Z,4.97
2018-12-02T09:15:18.950Z,4.93
2018-12-02T09:17:46.218Z,4.93
2018-12-02T09:20:20.366Z,5.03
2018-12-02T09:22:48.239Z,5.70
2018-12-02T09:25:15.599Z,5.50
2018-12-02T09:27:42.859Z,5.23
2018-12-02T09:30:14.439Z,5.73
2018-12-02T09:32:41.889Z,5.73
2018-12-02T09:35:10.691Z,6.30
2018-12-02T09:37:38.674Z,6.90
2018-12-02T09:40:10.074Z,6.53
2018-12-02T09:42:37.725Z,6.10
2018-12-02T09:45:10.212Z,6.13
2018-12-02T09:47:37.409Z,6.30
2018-12-02T09:50:06.716Z,6.63
2018-12-02T09:52:34.086Z,7.73
2018-12-02T09:55:01.899Z,6.70
2018-12-02T09:57:29.250Z,6.27
2018-12-02T09:59:56.595Z,7.07
2018-12-02T10:02:23.813Z,7.10
2018-12-02T10:04:51.690Z,6.23
2018-12-02T10:07:18.938Z,6.77
2018-12-02T10:09:46.091Z,7.33
2018-12-02T10:12:13.327Z,8.20
2018-12-02T10:14:43.447Z,7.33
2018-12-02T10:17:10.748Z,7.20
2018-12-02T10:19:37.998Z,7.20
2018-12-02T10:22:06.353Z,7.27
2018-12-02T10:24:33.599Z,7.73
2018-12-02T10:27:00.922Z,7.33
2018-12-02T10:29:28.282Z,7.77
2018-12-02T10:31:58.151Z,7.20
2018-12-02T10:34:26.341Z,7.90
2018-12-02T10:36:53.582Z,7.57
2018-12-02T10:39:20.979Z,7.40
2018-12-02T10:41:48.295Z,7.57
2018-12-02T10:44:15.667Z,7.67
2018-12-02T10:46:47.084Z,7.33
2018-12-02T10:49:22.010Z,6.67
2018-12-02T10:51:49.398Z,6.90
2018-12-02T10:54:16.797Z,5.93
2018-12-02T10:56:44.178Z,5.73
2018-12-02T10:59:13.887Z,6.33
2018-12-02T11:01:43.680Z,5.50
2018-12-02T11:04:11.627Z,5.43
2018-12-02T11:06:38.955Z,6.20
2018-12-02T11:09:09.545Z,5.60
2018-12-02T11:11:36.869Z,5.47
2018-12-02T11:14:04.361Z,5.27
2018-12-02T11:16:32.666Z,6.47
2018-12-02T11:18:59.923Z,5.47
2018-12-02T11:21:27.293Z,5.50
2018-12-02T11:23:54.663Z,5.20
2018-12-02T11:26:21.991Z,6.00
2018-12-02T11:28:49.537Z,5.43
2018-12-02T11:31:16.851Z,5.90
2018-12-02T11:33:44.189Z,5.20
2018-12-02T11:36:11.567Z,5.50
2018-12-02T11:38:38.926Z,4.80
2018-12-02T11:41:11.914Z,5.60
2018-12-02T11:43:39.196Z,5.60
2018-12-02T11:46:07.541Z,5.60
2018-12-02T11:48:34.959Z,5.00
2018-12-02T11:51:02.354Z,5.87
2018-12-02T11:53:29.870Z,5.90
2018-12-02T11:55:57.331Z,4.93
2018-12-02T11:58:25.342Z,5.57
2018-12-02T12:00:52.569Z,5.40
2018-12-02T12:03:20.853Z,4.93
2018-12-02T12:05:48.224Z,5.20
2018-12-02T12:08:16.191Z,5.97
2018-12-02T12:10:43.455Z,4.47
2018-12-02T12:13:11.788Z,4.67
2018-12-02T12:15:39.081Z,5.03
2018-12-02T12:25:08.666Z,4.03
2018-12-02T12:27:34.819Z,4.10
2018-12-02T12:30:02.222Z,4.10
2018-12-02T12:32:29.446Z,4.70
2018-12-02T12:34:56.658Z,4.30
2018-12-02T12:37:25.058Z,4.60
2018-12-02T12:39:52.281Z,3.90
2018-12-02T12:42:19.647Z,3.33
2018-12-02T12:44:46.950Z,3.50
2018-12-02T12:47:14.312Z,3.60
2018-12-02T12:49:41.656Z,2.83
2018-12-02T12:52:08.940Z,3.37
2018-12-02T12:54:36.241Z,3.07
2018-12-02T12:57:04.931Z,3.17
2018-12-02T12:59:32.261Z,2.63
2018-12-02T13:02:00.127Z,3.40
2018-12-02T13:04:26.825Z,2.60
2018-12-02T13:06:54.350Z,3.00
2018-12-02T13:09:21.751Z,2.97
2018-12-02T13:11:53.896Z,3.60
2018-12-02T13:14:23.330Z,3.30
2018-12-02T13:16:52.282Z,3.30
2018-12-02T13:19:23.941Z,2.83
2018-12-02T13:21:51.577Z,3.20
2018-12-02T13:24:19.102Z,3.00
2018-12-02T13:26:46.739Z,3.17
2018-12-02T13:29:14.063Z,3.20
2018-12-02T13:31:43.957Z,2.93
2018-12-02T13:34:11.217Z,2.93
2018-12-02T13:36:45.799Z,3.57
2018-12-02T13:39:13.097Z,3.50
2018-12-02T13:41:40.411Z,3.20
2018-12-02T13:44:07.675Z,4.33
2018-12-02T13:46:34.935Z,2.90
2018-12-02T13:49:02.230Z,2.80
2018-12-02T13:51:30.712Z,3.37
2018-12-02T13:54:03.684Z,3.50
2018-12-02T13:56:31.267Z,2.70
2018-12-02T13:58:58.555Z,2.90
2018-12-02T14:01:25.992Z,3.47
2018-12-02T14:03:53.278Z,3.53
2018-12-02T14:06:22.947Z,3.10
2018-12-02T14:08:50.579Z,2.90
2018-12-02T14:11:18.021Z,2.87
2018-12-02T14:13:46.026Z,2.33
2018-12-02T14:16:36.531Z,3.23
2018-12-02T14:19:09.374Z,2.60
2018-12-02T14:21:37.619Z,3.20
2018-12-02T14:24:06.923Z,2.60
2018-12-02T14:26:34.300Z,2.07
2018-12-02T14:29:09.339Z,2.50
2018-12-02T14:31:37.822Z,2.80
2018-12-02T14:34:05.492Z,2.50
2018-12-02T14:36:33.019Z,2.40
2018-12-02T14:39:00.229Z,2.87
2018-12-02T14:41:29.055Z,2.40
2018-12-02T14:43:56.390Z,2.90
2018-12-02T14:46:23.609Z,2.50
2018-12-02T14:48:51.102Z,2.30
2018-12-02T14:51:18.513Z,2.60
2018-12-02T14:53:45.765Z,2.70
2018-12-02T14:56:13.058Z,2.80
2018-12-02T14:58:40.401Z,3.10
2018-12-02T15:01:07.604Z,2.40
2018-12-02T15:03:34.831Z,2.90
2018-12-02T15:06:02.216Z,2.40
2018-12-02T15:08:32.986Z,2.33
2018-12-02T15:11:00.142Z,2.60
2018-12-02T15:13:27.454Z,2.00
2018-12-02T15:15:54.745Z,2.17
2018-12-02T15:18:21.871Z,2.10
2018-12-02T15:20:49.087Z,2.13
2018-12-02T15:23:17.425Z,1.90
2018-12-02T15:25:44.669Z,2.60
2018-12-02T15:28:11.833Z,3.00
2018-12-02T15:30:42.945Z,3.93
2018-12-02T15:33:10.206Z,2.40
2018-12-02T15:35:37.624Z,3.33
2018-12-02T15:38:05.326Z,2.50
2018-12-02T15:40:32.500Z,2.90
2018-12-02T15:42:59.710Z,3.13
2018-12-02T15:45:26.968Z,2.20
2018-12-02T15:47:54.325Z,2.20
2018-12-02T15:50:22.709Z,2.00
2018-12-02T15:52:50.112Z,2.27
2018-12-02T15:55:22.175Z,1.90
2018-12-02T15:57:53.059Z,2.10
2018-12-02T16:00:21.818Z,2.10
2018-12-02T16:02:49.126Z,2.10
2018-12-02T16:05:16.351Z,2.00
2018-12-02T16:07:45.661Z,2.00
2018-12-02T16:10:13.782Z,1.97
2018-12-02T16:12:42.500Z,1.80
2018-12-02T16:15:13.913Z,2.03
2018-12-02T16:17:41.326Z,1.90
2018-12-02T16:20:15.228Z,1.77
2018-12-02T16:22:49.743Z,1.90
2018-12-02T16:25:18.974Z,2.03
2018-12-02T16:27:46.338Z,2.30
2018-12-02T16:30:15.513Z,1.80
2018-12-02T16:32:44.197Z,2.30
2018-12-02T16:35:12.469Z,2.00
2018-12-02T16:37:39.908Z,2.30
2018-12-02T16:41:42.840Z,1.93
2018-12-02T16:44:11.158Z,2.47
2018-12-02T16:46:38.421Z,2.37
2018-12-02T16:49:06.259Z,2.00
2018-12-02T16:51:33.459Z,2.17
2018-12-02T16:54:00.758Z,2.00
2018-12-02T16:56:28.150Z,2.30
2018-12-02T16:59:01.715Z,2.30
2018-12-02T17:01:30.635Z,2.30
2018-12-02T17:03:59.182Z,2.70
2018-12-02T17:06:28.567Z,2.90
2018-12-02T17:08:56.844Z,2.43
2018-12-02T17:11:24.069Z,2.77
2018-12-02T17:13:51.508Z,2.57
2018-12-02T17:16:18.769Z,2.57
2018-12-02T17:18:46.184Z,2.57
2018-12-02T17:21:13.539Z,2.83
2018-12-02T17:23:40.748Z,2.70
2018-12-02T17:26:07.932Z,2.80
2018-12-02T17:28:37.046Z,3.00
2018-12-02T17:31:08.434Z,2.80
2018-12-02T17:33:37.230Z,2.50
2018-12-02T17:36:06.592Z,3.03
2018-12-02T17:38:33.873Z,2.70
2018-12-02T17:41:01.178Z,3.47
2018-12-02T17:43:28.431Z,2.80
2018-12-02T17:45:55.638Z,2.67
2018-12-02T17:48:22.882Z,2.57
2018-12-02T17:50:52.189Z,2.30
2018-12-02T17:53:19.488Z,2.60
2018-12-02T17:55:46.755Z,2.90
2018-12-02T17:58:15.018Z,2.87
2018-12-02T18:00:42.309Z,3.60
2018-12-02T18:03:11.726Z,3.27
2018-12-02T18:05:41.196Z,3.50
2018-12-02T18:08:08.355Z,3.47
2018-12-02T18:10:35.759Z,3.20
2018-12-02T18:13:03.075Z,3.97
2018-12-02T18:15:30.447Z,3.90
2018-12-02T18:17:57.660Z,4.43
2018-12-02T18:20:25.129Z,4.40
2018-12-02T18:22:53.019Z,4.60
2018-12-02T18:25:20.308Z,5.67
2018-12-02T18:27:47.637Z,4.90
2018-12-02T18:30:18.219Z,4.90
2018-12-02T18:32:46.354Z,5.63
2018-12-02T18:35:54.738Z,5.70
2018-12-02T18:38:23.521Z,5.80
2018-12-02T18:40:55.143Z,6.03
2018-12-02T18:43:22.653Z,7.07
2018-12-02T18:45:50.050Z,6.00
2018-12-02T18:48:17.523Z,6.50
2018-12-02T18:50:44.982Z,7.00
2018-12-02T18:53:12.336Z,6.70
2018-12-02T18:55:39.690Z,7.27
2018-12-02T18:58:07.010Z,7.30
2018-12-02T19:00:40.204Z,8.90
2018-12-02T19:03:07.529Z,8.20
2018-12-02T19:05:35.613Z,8.37
2018-12-02T19:08:04.373Z,7.93
2018-12-02T19:10:31.711Z,7.90
2018-12-02T19:12:58.909Z,9.47
2018-12-02T19:15:26.153Z,9.37
2018-12-02T19:17:53.455Z,8.87
2018-12-02T19:20:24.103Z,9.53
2018-12-02T19:23:02.343Z,8.70
2018-12-02T19:25:30.340Z,8.03
2018-12-02T19:27:58.078Z,8.00
2018-12-02T19:30:25.827Z,7.97
2018-12-02T19:32:53.734Z,7.60
2018-12-02T19:35:28.871Z,6.60
2018-12-02T19:37:59.232Z,7.80
2018-12-02T19:40:26.926Z,6.47
2018-12-02T19:42:54.280Z,6.07
2018-12-02T19:45:21.511Z,6.40
2018-12-02T19:47:50.591Z,5.90
2018-12-02T19:50:18.785Z,5.90
2018-12-02T19:52:46.849Z,6.87
2018-12-02T19:55:15.182Z,6.40
2018-12-02T19:57:44.221Z,6.00
2018-12-02T20:00:19.448Z,6.30
2018-12-02T20:02:46.966Z,6.30
2018-12-02T20:05:15.259Z,6.50
2018-12-02T20:07:43.467Z,6.70
2018-12-02T20:10:13.517Z,7.30
2018-12-02T20:12:42.444Z,7.33
2018-12-02T20:15:12.274Z,6.70
2018-12-02T20:17:39.740Z,7.50
2018-12-02T20:20:17.204Z,6.87
2018-12-02T20:22:45.691Z,6.90
2018-12-02T20:25:13.354Z,7.07
2018-12-02T20:27:40.835Z,6.47
2018-12-02T20:30:14.947Z,6.30
2018-12-02T20:32:42.810Z,5.73
2018-12-02T20:35:10.676Z,6.20
2018-12-02T20:37:38.067Z,5.73
2018-12-02T20:40:11.441Z,5.07
2018-12-02T20:42:38.624Z,6.10
2018-12-02T20:45:11.252Z,6.07
2018-12-02T20:47:39.271Z,6.83
2018-12-02T20:50:09.769Z,8.13
2018-12-02T20:52:37.005Z,6.70
2018-12-02T20:55:08.875Z,7.40
2018-12-02T20:57:36.176Z,7.40
2018-12-02T21:00:08.389Z,9.33
2018-12-02T21:02:35.637Z,8.80
2018-12-02T21:05:03.372Z,8.20
2018-12-02T21:07:30.586Z,8.80
2018-12-02T21:09:57.832Z,8.43
2018-12-02T21:12:25.119Z,9.10
2018-12-02T21:14:52.826Z,8.37
2018-12-02T21:17:20.193Z,10.07
2018-12-02T21:19:47.408Z,11.63
2018-12-02T21:22:14.694Z,10.87
2018-12-02T21:24:41.949Z,10.57
2018-12-02T21:27:09.097Z,12.07
2018-12-02T21:29:36.356Z,11.33
2018-12-02T21:32:03.631Z,11.70
2018-12-02T21:34:31.008Z,12.33
2018-12-02T21:37:07.426Z,12.43
2018-12-02T21:39:34.787Z,11.60
2018-12-02T21:42:02.215Z,11.60
2018-12-02T21:44:29.504Z,10.60
2018-12-02T21:46:58.089Z,10.50
2018-12-02T21:49:25.318Z,10.10
2018-12-02T21:51:52.643Z,10.43
2018-12-02T21:54:22.041Z,8.50
2018-12-02T21:56:49.630Z,9.23
2018-12-02T21:59:21.863Z,8.37
2018-12-02T22:01:49.052Z,9.50
2018-12-02T22:04:16.531Z,8.50
2018-12-02T22:06:43.794Z,8.50
2018-12-02T22:09:10.942Z,8.30
2018-12-02T22:11:39.262Z,8.70
2018-12-02T22:14:06.527Z,7.97
2018-12-02T22:16:33.704Z,8.90
2018-12-02T22:19:00.930Z,9.10
2018-12-02T22:21:29.582Z,8.17
2018-12-02T22:24:01.448Z,9.00
2018-12-02T22:26:31.943Z,8.90
2018-12-02T22:28:59.153Z,9.47
2018-12-02T22:31:27.380Z,9.00
2018-12-02T22:33:54.697Z,10.30
2018-12-02T22:36:23.058Z,9.43
2018-12-02T22:38:50.258Z,9.50
2018-12-02T22:41:17.604Z,9.10
2018-12-02T22:43:44.852Z,9.30
2018-12-02T22:46:12.170Z,9.57
2018-12-02T22:48:39.510Z,8.60
2018-12-02T22:51:06.812Z,9.00
2018-12-02T22:53:34.113Z,8.93
2018-12-02T22:56:01.310Z,10.00
2018-12-02T22:58:28.553Z,10.50
2018-12-02T23:01:01.579Z,11.30
2018-12-02T23:03:28.842Z,9.90
2018-12-02T23:05:56.083Z,12.03
2018-12-02T23:08:27.979Z,11.80
2018-12-02T23:10:55.268Z,12.20
2018-12-02T23:13:22.538Z,11.50
2018-12-02T23:15:49.715Z,12.70
2018-12-02T23:18:16.951Z,10.50
2018-12-02T23:20:44.125Z,11.70
2018-12-02T23:23:11.355Z,11.77
2018-12-02T23:25:38.609Z,12.37
2018-12-02T23:28:06.489Z,12.77
2018-12-02T23:30:33.940Z,11.57
2018-12-02T23:33:01.230Z,11.80
2018-12-02T23:35:28.988Z,10.70
2018-12-02T23:37:56.224Z,11.07
2018-12-02T23:40:24.337Z,11.77
2018-12-02T23:42:51.568Z,11.30
2018-12-02T23:45:18.776Z,11.90
2018-12-02T23:47:45.973Z,10.60
2018-12-02T23:50:15.037Z,10.63
2018-12-02T23:52:42.286Z,9.83
2018-12-02T23:55:12.672Z,8.93
2018-12-02T23:57:39.900Z,8.10
